Pagrindinis puslapis
METAR-TAF:

METAR-TAF

Oro uostai :

NASA Shuttle Landing Facility

Kenedžio kosminių skrydžių centras, Florida, Jungtinės Amerikos Valstijos

platuma: 28-37N, ilguma: 080-43W, Aukštis: 3 m

Dabartinis oras

Ataskaita buvo paskelbta 46 minutes, ne 17:56 UTC
Vėjas 5 kt iš Šiaurės
Temperatūra 26°C
Drėgmė 39%
Slėgis 1013 hPa
Matomumas: 16.1 km
Mažai debesys ne aukštis 2900 ft
Mažai debesys ne aukštis 19000 ft

METAR: KTTS 171756Z AUTO 01005KT 10SM FEW029 FEW190 26/11 A2991 RMK AO2 SLP133 T02560106 10264 20217 57014 FZRANO VISNO RWY15 $

Laikas: 14:42 (18:42 UTC)


TAF: trūkstamas

Orai ataskaitas ir orų prognozės (METAR, TAF).

turimą stotys yra geltonos ir raudonos taškus žemėlapyje.

Perkelti pele per norėdami pamatyti stoties vardą.

Tada spustelėkite, norėdami matyti oro stebėjimo ir prognozės.

Norėdami pakeisti žemėlapį: spustelėkite ant žalios mygtukų su juodo kryžiaus žemyn,; žalią mygtuką su brūkšneliu, jei norite nutolinti; arba žalių rodyklių gretimoms žemėlapius.


METAR-TAF: